createdAt,value
2019-04-03T00:01:04.953Z,6.23
2019-04-03T00:03:34.202Z,6.77
2019-04-03T00:06:05.553Z,7.30
2019-04-03T00:08:34.909Z,5.80
2019-04-03T00:11:04.589Z,6.67
2019-04-03T00:13:33.198Z,6.60
2019-04-03T00:16:21.309Z,6.17
2019-04-03T00:18:49.901Z,5.33
2019-04-03T00:21:19.758Z,6.20
2019-04-03T00:23:48.686Z,7.03
2019-04-03T00:26:17.252Z,7.73
2019-04-03T00:28:45.835Z,6.40
2019-04-03T00:31:14.483Z,6.43
2019-04-03T00:34:02.383Z,6.53
2019-04-03T00:36:31.136Z,5.80
2019-04-03T00:38:59.842Z,5.40
2019-04-03T00:41:28.482Z,5.97
2019-04-03T00:43:57.029Z,6.07
2019-04-03T00:46:25.584Z,6.30
2019-04-03T00:48:55.858Z,6.67
2019-04-03T00:51:27.005Z,6.93
2019-04-03T00:53:55.890Z,6.00
2019-04-03T00:56:26.697Z,5.73
2019-04-03T00:58:55.719Z,5.50
2019-04-03T01:01:26.445Z,5.43
2019-04-03T01:03:54.972Z,6.50
2019-04-03T01:06:23.722Z,6.30
2019-04-03T01:08:52.286Z,6.20
2019-04-03T01:11:20.913Z,6.97
2019-04-03T01:13:49.655Z,7.73
2019-04-03T01:16:18.215Z,9.40
2019-04-03T01:18:46.765Z,8.37
2019-04-03T01:21:15.589Z,8.37
2019-04-03T01:23:44.110Z,8.73
2019-04-03T01:26:12.710Z,10.30
2019-04-03T01:28:41.972Z,9.23
2019-04-03T01:31:14.179Z,9.73
2019-04-03T01:33:41.754Z,9.23
2019-04-03T01:36:10.342Z,9.40
2019-04-03T01:38:38.919Z,9.40
2019-04-03T01:41:07.466Z,9.97
2019-04-03T01:43:36.019Z,8.87
2019-04-03T01:46:04.748Z,8.27
2019-04-03T01:48:33.400Z,8.80
2019-04-03T01:51:02.106Z,8.93
2019-04-03T01:53:32.189Z,7.87
2019-04-03T01:56:01.003Z,8.10
2019-04-03T01:58:29.592Z,9.27
2019-04-03T02:00:58.184Z,10.17
2019-04-03T02:03:26.902Z,9.13
2019-04-03T02:05:55.787Z,10.07
2019-04-03T02:08:24.383Z,10.53
2019-04-03T02:10:53.128Z,9.67
2019-04-03T02:13:22.037Z,9.43
2019-04-03T02:15:52.572Z,9.70
2019-04-03T02:18:21.168Z,8.97
2019-04-03T02:20:49.841Z,8.77
2019-04-03T02:23:18.406Z,10.13
2019-04-03T02:25:47.299Z,9.20
2019-04-03T02:28:15.924Z,9.13
2019-04-03T02:30:46.112Z,7.73
2019-04-03T02:33:15.108Z,7.77
2019-04-03T02:35:43.967Z,7.17
2019-04-03T02:38:12.545Z,8.13
2019-04-03T02:40:41.401Z,7.00
2019-04-03T02:43:13.470Z,8.07
2019-04-03T02:45:40.752Z,7.90
2019-04-03T02:48:09.607Z,7.90
2019-04-03T02:50:38.742Z,9.00
2019-04-03T02:53:07.920Z,9.90
2019-04-03T02:55:39.342Z,8.87
2019-04-03T02:58:07.334Z,9.07
2019-04-03T03:00:36.214Z,9.33
2019-04-03T03:03:05.123Z,9.03
2019-04-03T03:05:34.374Z,9.00
2019-04-03T03:08:03.180Z,8.13
2019-04-03T03:10:33.315Z,8.87
2019-04-03T03:13:02.753Z,8.70
2019-04-03T03:15:35.685Z,8.50
2019-04-03T03:18:05.021Z,7.83
2019-04-03T03:20:38.526Z,8.17
2019-04-03T03:23:06.344Z,7.80
2019-04-03T03:25:35.804Z,7.40
2019-04-03T03:28:04.711Z,8.30
2019-04-03T03:30:43.458Z,7.43
2019-04-03T03:33:24.516Z,7.97
2019-04-03T03:35:42.048Z,8.27
2019-04-03T03:38:07.043Z,8.00
2019-04-03T03:40:37.247Z,8.67
2019-04-03T03:43:06.473Z,7.43
2019-04-03T03:45:35.774Z,9.00
2019-04-03T03:48:08.064Z,8.37
2019-04-03T03:50:36.991Z,8.47
2019-04-03T03:53:10.133Z,8.40
2019-04-03T03:55:37.973Z,8.57
2019-04-03T03:58:11.098Z,8.83
2019-04-03T04:00:38.105Z,8.47
2019-04-03T04:03:10.085Z,8.33
2019-04-03T04:05:37.478Z,8.20
2019-04-03T04:08:09.347Z,8.60
2019-04-03T04:10:38.941Z,8.33
2019-04-03T04:13:07.963Z,8.13
2019-04-03T04:15:57.546Z,8.03
2019-04-03T04:18:26.774Z,7.87
2019-04-03T04:20:55.912Z,9.00
2019-04-03T04:23:25.957Z,8.10
2019-04-03T04:25:55.412Z,8.47
2019-04-03T04:28:24.355Z,8.10
2019-04-03T04:30:53.312Z,8.17
2019-04-03T04:33:22.001Z,7.60
2019-04-03T04:35:52.467Z,8.53
2019-04-03T04:38:21.252Z,9.00
2019-04-03T04:40:49.959Z,14.03
2019-04-03T04:43:18.569Z,9.80
2019-04-03T04:45:47.150Z,8.63
2019-04-03T04:48:16.851Z,7.47
2019-04-03T04:50:46.227Z,8.10
2019-04-03T04:53:14.873Z,7.33
2019-04-03T04:55:43.458Z,7.70
2019-04-03T04:58:12.250Z,7.00
2019-04-03T05:00:40.938Z,7.20
2019-04-03T05:03:09.741Z,7.47
2019-04-03T05:05:38.629Z,7.00
2019-04-03T05:08:07.198Z,7.27
2019-04-03T05:10:36.906Z,7.57
2019-04-03T05:13:05.815Z,8.30
2019-04-03T05:15:34.583Z,9.40
2019-04-03T05:18:03.309Z,9.67
2019-04-03T05:20:32.310Z,8.73
2019-04-03T05:23:01.056Z,9.53
2019-04-03T05:25:30.398Z,10.53
2019-04-03T05:28:00.010Z,9.20
2019-04-03T05:30:33.416Z,9.83
2019-04-03T05:33:02.475Z,8.80
2019-04-03T05:35:31.224Z,9.17
2019-04-03T05:38:00.151Z,9.43
2019-04-03T05:40:28.949Z,8.97
2019-04-03T05:42:59.858Z,9.10
2019-04-03T05:45:28.191Z,9.40
2019-04-03T05:47:56.833Z,10.00
2019-04-03T05:50:26.428Z,9.77
2019-04-03T05:52:55.782Z,10.10
2019-04-03T05:55:24.540Z,9.83
2019-04-03T05:57:53.223Z,10.43
2019-04-03T06:00:21.915Z,9.70
2019-04-03T06:02:52.661Z,9.07
2019-04-03T06:05:20.782Z,9.00
2019-04-03T06:07:49.840Z,8.73
2019-04-03T06:10:18.671Z,8.83
2019-04-03T06:12:47.233Z,8.53
2019-04-03T06:15:16.341Z,9.33
2019-04-03T06:17:45.133Z,9.27
2019-04-03T06:20:14.095Z,10.07
2019-04-03T06:22:43.464Z,9.87
2019-04-03T06:25:13.724Z,9.60
2019-04-03T06:27:47.139Z,10.03
2019-04-03T06:30:19.789Z,8.97
2019-04-03T06:32:48.163Z,9.80
2019-04-03T06:35:17.294Z,8.83
2019-04-03T06:37:45.960Z,9.33
2019-04-03T06:40:15.380Z,9.80
2019-04-03T06:42:45.293Z,10.77
2019-04-03T06:45:16.015Z,10.77
2019-04-03T06:47:46.140Z,10.57
2019-04-03T06:50:17.372Z,10.10
2019-04-03T06:52:45.335Z,9.40
2019-04-03T06:55:14.092Z,8.63
2019-04-03T06:57:42.971Z,8.03
2019-04-03T07:00:17.713Z,8.00
2019-04-03T07:02:46.834Z,7.17
2019-04-03T07:05:16.716Z,7.57
2019-04-03T07:07:45.480Z,6.97
2019-04-03T07:10:24.804Z,6.83
2019-04-03T07:12:46.460Z,7.10
2019-04-03T07:15:16.323Z,7.40
2019-04-03T07:17:45.473Z,7.10
2019-04-03T07:20:33.471Z,7.17
2019-04-03T07:23:02.298Z,6.77
2019-04-03T07:25:33.958Z,6.63
2019-04-03T07:28:08.580Z,6.37
2019-04-03T07:30:36.764Z,6.90
2019-04-03T07:33:06.388Z,6.30
2019-04-03T07:35:35.632Z,7.73
2019-04-03T07:38:04.379Z,7.70
2019-04-03T07:40:33.256Z,7.83
2019-04-03T07:43:02.179Z,7.23
2019-04-03T07:45:32.725Z,7.80
2019-04-03T07:48:01.608Z,7.73
2019-04-03T07:50:49.640Z,6.57
2019-04-03T07:53:19.871Z,7.30
2019-04-03T07:55:48.832Z,7.60
2019-04-03T07:58:18.999Z,7.13
2019-04-03T08:00:48.355Z,6.73
2019-04-03T08:03:20.001Z,6.90
2019-04-03T08:05:49.499Z,6.40
2019-04-03T08:08:18.183Z,6.07
2019-04-03T08:10:47.166Z,6.67
2019-04-03T08:13:16.796Z,6.13
2019-04-03T08:15:45.606Z,6.17
2019-04-03T08:18:14.267Z,6.20
2019-04-03T08:20:42.993Z,6.23
2019-04-03T08:23:11.625Z,6.17
2019-04-03T08:25:42.392Z,4.60
2019-04-03T08:28:12.242Z,4.00
2019-04-03T08:30:41.144Z,4.63
2019-04-03T08:33:16.023Z,4.37
2019-04-03T08:35:41.388Z,3.43
2019-04-03T08:38:12.527Z,3.03
2019-04-03T08:40:41.943Z,2.43
2019-04-03T08:43:11.873Z,2.67
2019-04-03T08:45:42.077Z,2.20
2019-04-03T08:48:11.038Z,2.40
2019-04-03T08:50:42.697Z,2.07
2019-04-03T08:53:11.590Z,2.37
2019-04-03T08:55:40.430Z,2.10
2019-04-03T08:58:09.137Z,2.20
2019-04-03T09:00:37.848Z,2.53
2019-04-03T09:03:06.622Z,2.47
2019-04-03T09:05:35.532Z,2.77
2019-04-03T09:08:04.220Z,3.00
2019-04-03T09:10:36.485Z,2.60
2019-04-03T09:13:16.170Z,2.47
2019-04-03T09:15:34.292Z,2.37
2019-04-03T09:18:06.038Z,2.30
2019-04-03T09:20:35.396Z,2.60
2019-04-03T09:23:05.350Z,2.73
2019-04-03T09:25:34.135Z,2.70
2019-04-03T09:28:03.030Z,2.93
2019-04-03T09:30:31.892Z,2.83
2019-04-03T09:33:03.744Z,2.30
2019-04-03T09:35:33.242Z,3.30
2019-04-03T09:38:02.043Z,2.70
2019-04-03T09:40:30.922Z,2.70
2019-04-03T09:42:59.618Z,3.43
2019-04-03T09:45:30.217Z,2.30
2019-04-03T09:47:59.225Z,2.90
2019-04-03T09:50:28.217Z,2.80
2019-04-03T09:52:57.465Z,3.10
2019-04-03T09:55:28.463Z,3.10
2019-04-03T09:57:58.724Z,2.63
2019-04-03T10:00:29.220Z,2.73
2019-04-03T10:02:58.486Z,3.20
2019-04-03T10:05:28.938Z,3.17
2019-04-03T10:07:58.397Z,3.00
2019-04-03T10:10:28.692Z,2.97
2019-04-03T10:12:57.685Z,2.87
2019-04-03T10:15:27.272Z,3.63
2019-04-03T10:17:56.187Z,3.17
2019-04-03T10:20:25.295Z,3.20
2019-04-03T10:22:56.354Z,3.00
2019-04-03T10:25:24.366Z,2.80
2019-04-03T10:27:58.422Z,2.93
2019-04-03T10:30:27.432Z,3.10
2019-04-03T10:32:58.667Z,3.40
2019-04-03T10:35:26.636Z,3.30
2019-04-03T10:37:55.427Z,2.90
2019-04-03T10:40:24.981Z,3.33
2019-04-03T10:42:54.200Z,3.30
2019-04-03T10:45:22.958Z,3.43
2019-04-03T10:47:55.446Z,2.83
2019-04-03T10:50:23.973Z,3.40
2019-04-03T10:52:54.344Z,2.93
2019-04-03T10:55:23.054Z,3.47
2019-04-03T10:57:51.744Z,3.20
2019-04-03T11:00:22.067Z,3.30
2019-04-03T11:02:53.050Z,3.47
2019-04-03T11:05:22.042Z,3.87
2019-04-03T11:07:52.724Z,3.27
2019-04-03T11:10:23.442Z,3.20
2019-04-03T11:12:51.923Z,3.70
2019-04-03T11:15:21.287Z,3.57
2019-04-03T11:17:50.456Z,3.40
2019-04-03T11:20:19.595Z,3.83
2019-04-03T11:22:49.044Z,3.47
2019-04-03T11:25:18.327Z,3.77
2019-04-03T11:27:47.434Z,4.00
2019-04-03T11:30:23.803Z,4.20
2019-04-03T11:32:50.486Z,3.67
2019-04-03T11:35:22.079Z,3.40
2019-04-03T11:37:50.801Z,3.77
2019-04-03T11:40:19.910Z,3.70
2019-04-03T11:42:49.241Z,3.90
2019-04-03T11:45:20.447Z,3.67
2019-04-03T11:47:49.378Z,4.00
2019-04-03T11:50:18.686Z,3.70
2019-04-03T11:52:47.590Z,4.03
2019-04-03T11:55:17.789Z,3.97
2019-04-03T11:57:48.234Z,3.90
2019-04-03T12:00:21.053Z,4.07
2019-04-03T12:02:51.444Z,4.30
2019-04-03T12:05:21.060Z,4.60
2019-04-03T12:07:51.289Z,3.77
2019-04-03T12:10:24.647Z,4.10
2019-04-03T12:12:50.688Z,4.33
2019-04-03T12:15:21.811Z,5.07
2019-04-03T12:17:51.234Z,5.00
2019-04-03T12:20:20.573Z,4.90
2019-04-03T12:22:49.706Z,4.53
2019-04-03T12:25:18.594Z,4.67
2019-04-03T12:27:47.785Z,4.73
2019-04-03T12:30:17.739Z,4.50
2019-04-03T12:32:48.988Z,4.80
2019-04-03T12:35:17.604Z,5.03
2019-04-03T12:37:51.861Z,4.83
2019-04-03T12:40:20.573Z,4.70
2019-04-03T12:42:49.467Z,4.90
2019-04-03T12:45:25.721Z,4.93
2019-04-03T12:47:54.480Z,4.87
2019-04-03T12:50:26.838Z,5.27
2019-04-03T12:52:53.950Z,5.43
2019-04-03T12:55:22.974Z,4.90
2019-04-03T12:57:52.917Z,4.23
2019-04-03T13:00:23.606Z,5.47
2019-04-03T13:02:53.123Z,5.13
2019-04-03T13:05:22.364Z,5.63
2019-04-03T13:07:51.208Z,5.93
2019-04-03T13:10:20.619Z,5.40
2019-04-03T13:12:49.280Z,5.60
2019-04-03T13:15:18.727Z,5.17
2019-04-03T13:17:47.583Z,5.07
2019-04-03T13:20:16.783Z,6.20
2019-04-03T13:22:45.464Z,4.87
2019-04-03T13:25:14.746Z,5.00
2019-04-03T13:27:44.156Z,5.33
2019-04-03T13:30:15.540Z,5.80
2019-04-03T13:32:56.705Z,5.23
2019-04-03T13:35:16.343Z,5.67
2019-04-03T13:37:45.291Z,5.97
2019-04-03T13:40:14.846Z,5.80
2019-04-03T13:42:43.668Z,5.90
2019-04-03T13:45:12.977Z,5.87
2019-04-03T13:47:42.894Z,5.90
2019-04-03T13:50:12.886Z,6.23
2019-04-03T13:52:45.809Z,6.00
2019-04-03T13:55:12.149Z,5.93
2019-04-03T13:57:41.709Z,6.03
2019-04-03T14:00:19.701Z,6.80
2019-04-03T14:02:45.004Z,7.10
2019-04-03T14:05:11.972Z,5.60
2019-04-03T14:07:41.877Z,5.83
2019-04-03T14:10:12.133Z,5.33
2019-04-03T14:12:44.182Z,5.70
2019-04-03T14:15:11.611Z,5.60
2019-04-03T14:17:54.102Z,4.60
2019-04-03T14:20:16.454Z,4.87
2019-04-03T14:22:45.190Z,5.47
2019-04-03T14:25:20.956Z,5.87
2019-04-03T14:27:47.732Z,4.77
2019-04-03T14:30:37.285Z,5.80
2019-04-03T14:33:07.630Z,5.47
2019-04-03T14:35:48.812Z,5.33
2019-04-03T14:38:11.514Z,5.00
2019-04-03T14:40:43.062Z,4.83
2019-04-03T14:43:09.814Z,5.50
2019-04-03T14:45:39.742Z,5.43
2019-04-03T14:48:10.663Z,5.60
2019-04-03T14:50:39.681Z,5.93
2019-04-03T14:53:08.447Z,6.07
2019-04-03T14:55:48.194Z,6.10
2019-04-03T14:58:14.988Z,11.80
2019-04-03T15:00:46.748Z,7.00
2019-04-03T15:03:14.694Z,7.77
2019-04-03T15:05:44.914Z,6.60
2019-04-03T15:08:13.973Z,6.57
2019-04-03T15:10:43.136Z,6.40
2019-04-03T15:13:14.066Z,5.63
2019-04-03T15:15:42.437Z,6.03
2019-04-03T15:18:11.386Z,5.20
2019-04-03T15:20:40.317Z,4.60
2019-04-03T15:23:09.354Z,4.97
2019-04-03T15:25:38.509Z,5.03
2019-04-03T15:28:07.328Z,4.77
2019-04-03T15:30:36.254Z,5.13
2019-04-03T15:33:05.792Z,5.13
2019-04-03T15:35:47.081Z,5.30
2019-04-03T15:38:18.605Z,5.23
2019-04-03T15:40:47.892Z,5.70
2019-04-03T15:43:17.264Z,5.10
2019-04-03T15:45:47.026Z,4.80
2019-04-03T15:48:15.951Z,5.60
2019-04-03T15:50:46.048Z,5.53
2019-04-03T15:53:15.169Z,4.87
2019-04-03T15:55:44.688Z,5.40
2019-04-03T15:58:13.785Z,5.73
2019-04-03T16:00:43.301Z,6.20
2019-04-03T16:03:12.167Z,5.30
2019-04-03T16:05:42.213Z,6.13
2019-04-03T16:08:12.807Z,5.67
2019-04-03T16:10:41.561Z,6.30
2019-04-03T16:13:12.087Z,6.37
2019-04-03T16:15:41.017Z,6.13
2019-04-03T16:18:09.608Z,5.60
2019-04-03T16:20:38.231Z,4.50
2019-04-03T16:23:07.037Z,4.47
2019-04-03T16:25:35.944Z,3.33
2019-04-03T16:28:05.205Z,3.30
2019-04-03T16:30:35.496Z,3.90
2019-04-03T16:33:05.039Z,3.70
2019-04-03T16:35:34.797Z,3.30
2019-04-03T16:38:03.545Z,2.40
2019-04-03T16:40:35.192Z,2.17
2019-04-03T16:43:02.853Z,2.30
2019-04-03T16:45:31.547Z,2.10
2019-04-03T16:48:03.135Z,2.30
2019-04-03T16:50:31.747Z,2.97
2019-04-03T16:53:00.730Z,2.70
2019-04-03T16:55:29.428Z,2.80
2019-04-03T16:57:58.397Z,3.10
2019-04-03T17:00:27.497Z,2.90
2019-04-03T17:02:57.035Z,2.33
2019-04-03T17:05:25.854Z,1.80
2019-04-03T17:07:55.138Z,2.00
2019-04-03T17:10:24.607Z,2.03
2019-04-03T17:12:54.724Z,1.97
2019-04-03T17:15:23.663Z,1.90
2019-04-03T17:17:52.305Z,1.30
2019-04-03T17:20:22.512Z,1.57
2019-04-03T17:22:53.519Z,1.50
2019-04-03T17:25:21.848Z,1.27
2019-04-03T17:28:10.462Z,1.30
2019-04-03T17:30:58.580Z,1.40
2019-04-03T17:33:27.747Z,1.50
2019-04-03T17:35:56.509Z,1.77
2019-04-03T17:38:25.200Z,1.90
2019-04-03T17:40:53.825Z,1.60
2019-04-03T17:43:22.535Z,1.63
2019-04-03T17:45:51.224Z,1.60
2019-04-03T17:48:19.911Z,1.70
2019-04-03T17:50:50.134Z,2.10
2019-04-03T17:53:18.752Z,1.80
2019-04-03T17:55:47.365Z,1.73
2019-04-03T17:58:16.930Z,1.80
2019-04-03T18:00:47.312Z,1.80
2019-04-03T18:03:15.928Z,1.40
2019-04-03T18:05:44.549Z,1.30
2019-04-03T18:08:13.275Z,1.33
2019-04-03T18:10:42.634Z,1.60
2019-04-03T18:13:11.773Z,1.70
2019-04-03T18:15:40.361Z,1.83
2019-04-03T18:18:10.719Z,1.73
2019-04-03T18:20:51.542Z,1.50
2019-04-03T18:23:21.735Z,1.77
2019-04-03T18:26:10.009Z,1.60
2019-04-03T18:28:38.954Z,1.60
2019-04-03T18:31:07.623Z,1.50
2019-04-03T18:33:36.430Z,1.60
2019-04-03T18:36:05.625Z,1.40
2019-04-03T18:38:34.228Z,1.73
2019-04-03T18:41:04.101Z,1.40
2019-04-03T18:43:54.140Z,1.40
2019-04-03T18:46:32.076Z,1.30
2019-04-03T18:48:58.737Z,1.43
2019-04-03T18:51:23.829Z,1.70
2019-04-03T18:53:52.497Z,1.43
2019-04-03T18:56:21.096Z,1.90
2019-04-03T18:58:49.815Z,1.70
2019-04-03T19:01:20.147Z,1.73
2019-04-03T19:03:48.853Z,1.80
2019-04-03T19:06:17.689Z,1.27
2019-04-03T19:08:46.325Z,1.80
2019-04-03T19:11:15.030Z,1.50
2019-04-03T19:13:45.151Z,1.70
2019-04-03T19:16:19.555Z,1.47
2019-04-03T19:18:44.252Z,1.80
2019-04-03T19:21:24.106Z,1.97
2019-04-03T19:23:49.540Z,1.63
2019-04-03T19:26:14.316Z,1.70
2019-04-03T19:28:42.993Z,1.80
2019-04-03T19:31:11.566Z,1.47
2019-04-03T19:33:40.359Z,2.07
2019-04-03T19:36:09.083Z,2.10
2019-04-03T19:38:37.991Z,1.60
2019-04-03T19:41:06.561Z,2.10
2019-04-03T19:43:36.760Z,1.50
2019-04-03T19:46:05.477Z,1.67
2019-04-03T19:48:34.276Z,1.37
2019-04-03T19:51:03.501Z,1.83
2019-04-03T19:53:32.343Z,1.90
2019-04-03T19:56:01.021Z,1.90
2019-04-03T19:58:29.817Z,1.90
2019-04-03T20:00:58.346Z,1.73
2019-04-03T20:03:26.977Z,2.40
2019-04-03T20:05:55.609Z,2.10
2019-04-03T20:08:24.230Z,2.07
2019-04-03T20:10:52.780Z,2.30
2019-04-03T20:13:40.741Z,2.10
2019-04-03T20:16:09.352Z,2.20
2019-04-03T20:18:37.999Z,1.90
2019-04-03T20:21:06.699Z,2.10
2019-04-03T20:23:35.253Z,1.97
2019-04-03T20:26:04.721Z,2.53
2019-04-03T20:28:33.734Z,3.03
2019-04-03T20:31:03.751Z,2.40
2019-04-03T20:33:33.000Z,2.80
2019-04-03T20:36:01.710Z,2.40
2019-04-03T20:38:30.412Z,2.53
2019-04-03T20:40:59.236Z,2.43
2019-04-03T20:43:27.884Z,2.90
2019-04-03T20:45:56.783Z,2.63
2019-04-03T20:48:28.018Z,3.00
2019-04-03T20:50:55.615Z,3.13
2019-04-03T20:53:24.237Z,2.83
2019-04-03T20:55:52.791Z,3.10
2019-04-03T20:58:21.406Z,2.57
2019-04-03T21:01:00.325Z,3.30
2019-04-03T21:03:21.311Z,3.07
2019-04-03T21:05:50.090Z,3.47
2019-04-03T21:08:18.752Z,3.73
2019-04-03T21:10:47.423Z,4.10
2019-04-03T21:13:16.083Z,4.17
2019-04-03T21:15:45.605Z,3.80
2019-04-03T21:18:14.591Z,4.40
2019-04-03T21:20:43.359Z,5.20
2019-04-03T21:23:12.197Z,4.00
2019-04-03T21:25:40.884Z,4.27
2019-04-03T21:28:10.982Z,4.47
2019-04-03T21:30:39.884Z,4.00
2019-04-03T21:33:08.515Z,4.60
2019-04-03T21:35:37.262Z,4.73
2019-04-03T21:38:05.851Z,4.30
2019-04-03T21:40:34.595Z,4.53
2019-04-03T21:43:03.164Z,4.80
2019-04-03T21:45:31.831Z,5.00
2019-04-03T21:48:00.467Z,4.90
2019-04-03T21:50:29.069Z,5.57
2019-04-03T21:52:57.842Z,5.13
2019-04-03T21:55:26.472Z,5.17
2019-04-03T21:57:55.341Z,5.17
2019-04-03T22:00:37.272Z,5.17
2019-04-03T22:03:06.925Z,4.53
2019-04-03T22:05:35.683Z,4.70
2019-04-03T22:08:04.753Z,4.70
2019-04-03T22:10:33.731Z,4.93
2019-04-03T22:13:02.485Z,4.97
2019-04-03T22:15:31.044Z,5.10
2019-04-03T22:17:59.716Z,4.43
2019-04-03T22:20:29.592Z,4.53
2019-04-03T22:22:58.985Z,5.40
2019-04-03T22:25:27.540Z,6.13
2019-04-03T22:27:56.125Z,5.73
2019-04-03T22:30:24.774Z,5.90
2019-04-03T22:32:54.016Z,6.17
2019-04-03T22:35:23.636Z,5.90
2019-04-03T22:37:52.217Z,6.20
2019-04-03T22:40:20.884Z,6.10
2019-04-03T22:42:49.438Z,6.10
2019-04-03T22:45:20.039Z,6.30
2019-04-03T22:47:48.404Z,6.27
2019-04-03T22:50:17.099Z,6.13
2019-04-03T22:53:05.169Z,7.03
2019-04-03T22:55:36.042Z,6.97
2019-04-03T22:58:04.865Z,6.43
2019-04-03T23:00:33.475Z,6.23
2019-04-03T23:03:02.976Z,6.37
2019-04-03T23:05:32.608Z,5.73
2019-04-03T23:08:01.320Z,5.30
2019-04-03T23:10:30.260Z,4.40
2019-04-03T23:12:59.204Z,4.07
2019-04-03T23:15:27.766Z,4.37
2019-04-03T23:17:56.476Z,4.20
2019-04-03T23:20:25.139Z,3.70
2019-04-03T23:22:56.330Z,4.87
2019-04-03T23:25:25.084Z,4.60
2019-04-03T23:27:53.709Z,4.47
2019-04-03T23:30:22.428Z,4.53
2019-04-03T23:32:51.110Z,4.23
2019-04-03T23:35:20.507Z,4.53
2019-04-03T23:37:49.908Z,4.50
2019-04-03T23:40:18.529Z,4.07
2019-04-03T23:42:47.212Z,4.17
2019-04-03T23:45:16.920Z,4.00
2019-04-03T23:47:47.063Z,4.27
2019-04-03T23:50:15.968Z,4.13
2019-04-03T23:52:44.610Z,4.27
2019-04-03T23:55:13.323Z,4.07
2019-04-03T23:57:41.921Z,4.07
